Time;durP1;ratioP1;P1;durP2;ratioP2;P2;SDS_P1;SDS_P2;PMS_P1;PMS_P2;Temp;Humidity;BMP_temperature;BMP_pressure;BME280_temperature;BME280_humidity;BME280_pressure;Samples;Min_cycle;Max_cycle;Signal;HPM_P1;HPM_P2
2024/01/26 00:01:09;;;;;;;17.83;11.45;;;;;;;9.11;85.44;101542.13;3142979;23;20024;-77
2024/01/26 00:02:23;;;;;;;14.30;10.38;;;;;;;9.10;85.47;101541.28;3143084;22;20020;-75
2024/01/26 00:03:38;;;;;;;12.60;10.68;;;;;;;9.11;85.45;101544.75;3142956;23;20024;-76
2024/01/26 00:04:52;;;;;;;12.88;9.90;;;;;;;9.11;85.44;101548.25;3142827;23;20020;-76
2024/01/26 00:06:06;;;;;;;11.40;9.68;;;;;;;9.12;85.72;101546.50;3143102;22;20077;-78
2024/01/26 00:07:20;;;;;;;14.13;10.75;;;;;;;9.11;85.27;101548.25;3143268;22;20598;-77
2024/01/26 00:08:34;;;;;;;14.75;9.88;;;;;;;9.12;85.41;101554.31;3142333;22;20024;-75
2024/01/26 00:09:49;;;;;;;14.85;11.20;;;;;;;9.11;85.63;101543.03;3143096;22;20059;-75
2024/01/26 00:11:02;;;;;;;14.23;10.77;;;;;;;9.11;85.47;101548.25;3143099;23;20031;-75
2024/01/26 00:12:17;;;;;;;14.10;12.27;;;;;;;9.12;85.41;101542.16;3142347;22;20358;-76
2024/01/26 00:13:30;;;;;;;12.07;10.40;;;;;;;9.13;85.39;101550.84;3142960;23;20024;-75
2024/01/26 00:14:44;;;;;;;13.90;10.68;;;;;;;9.13;85.44;101546.50;3142641;23;20020;-75
2024/01/26 00:15:59;;;;;;;13.80;10.80;;;;;;;9.15;85.53;101549.13;3143187;22;20141;-76
2024/01/26 00:17:13;;;;;;;15.30;12.68;;;;;;;9.14;85.37;101534.38;3147434;23;20107;-78
2024/01/26 00:18:27;;;;;;;14.90;10.88;;;;;;;9.15;85.59;101530.91;3142763;23;20034;-78
2024/01/26 00:19:41;;;;;;;15.95;11.20;;;;;;;9.16;85.57;101535.25;3142613;22;20016;-76
2024/01/26 00:20:55;;;;;;;16.13;11.85;;;;;;;9.15;85.39;101531.78;3142829;23;20347;-79
2024/01/26 00:22:09;;;;;;;17.02;11.48;;;;;;;9.16;85.43;101530.94;3142968;22;20028;-78
2024/01/26 00:23:23;;;;;;;16.35;11.35;;;;;;;9.16;85.36;101537.84;3143129;23;20024;-80
2024/01/26 00:24:37;;;;;;;11.35;10.18;;;;;;;9.17;85.36;101534.41;3142635;22;20365;-78
2024/01/26 00:25:50;;;;;;;12.63;11.32;;;;;;;9.17;85.43;101530.06;3142932;23;20490;-80
2024/01/26 00:27:06;;;;;;;17.20;12.60;;;;;;;9.18;85.60;101526.59;3142928;23;20022;-77
2024/01/26 00:28:19;;;;;;;14.88;11.45;;;;;;;9.18;85.54;101524.00;3141925;22;20016;-78
2024/01/26 00:29:33;;;;;;;13.88;12.02;;;;;;;9.20;85.55;101520.56;3142956;23;20024;-79
2024/01/26 00:30:47;;;;;;;18.67;14.25;;;;;;;9.19;85.35;101524.91;3142898;23;20051;-78
2024/01/26 00:32:03;;;;;;;14.60;13.07;;;;;;;9.17;85.43;101517.06;3141698;22;20016;-78
2024/01/26 00:33:16;;;;;;;20.92;15.55;;;;;;;9.17;85.44;101532.69;3142685;23;20478;-78
2024/01/26 00:34:31;;;;;;;13.75;11.85;;;;;;;9.16;85.46;101530.94;3142954;22;20020;-78
2024/01/26 00:35:44;;;;;;;12.63;10.80;;;;;;;9.16;85.40;101530.94;3142151;22;20024;-78
2024/01/26 00:37:00;;;;;;;13.98;11.77;;;;;;;9.17;85.44;101526.59;3142858;22;20031;-77
2024/01/26 00:38:14;;;;;;;12.95;11.55;;;;;;;9.17;85.26;101534.41;3147655;23;20115;-77
2024/01/26 00:39:28;;;;;;;14.65;12.98;;;;;;;9.16;85.26;101523.13;3142823;23;20094;-78
2024/01/26 00:40:42;;;;;;;12.82;11.45;;;;;;;9.16;85.13;101512.72;3142398;22;20491;-78
2024/01/26 00:41:56;;;;;;;13.63;11.38;;;;;;;9.15;85.08;101515.28;3143097;22;20020;-76
2024/01/26 00:43:10;;;;;;;18.73;12.25;;;;;;;9.13;85.01;101511.78;3142784;23;20023;-77
2024/01/26 00:44:24;;;;;;;15.18;12.07;;;;;;;9.11;84.94;101514.38;3142333;22;20465;-77
2024/01/26 00:45:37;;;;;;;14.85;12.30;;;;;;;9.10;84.92;101510.03;3142876;23;20024;-75
2024/01/26 00:46:52;;;;;;;18.30;13.00;;;;;;;9.08;84.88;101508.25;3142914;23;20023;-78
2024/01/26 00:48:07;;;;;;;18.02;13.38;;;;;;;9.06;85.02;101513.47;3142153;22;20020;-80
2024/01/26 00:49:21;;;;;;;20.58;12.52;;;;;;;9.04;84.95;101504.75;3142950;23;20032;-77
2024/01/26 00:50:34;;;;;;;14.77;12.25;;;;;;;9.03;84.89;101502.13;3143036;23;20020;-77
2024/01/26 00:51:49;;;;;;;13.15;11.80;;;;;;;9.01;85.04;101509.03;3141571;22;20031;-77
2024/01/26 00:53:03;;;;;;;14.55;11.60;;;;;;;8.99;84.86;101505.56;3142943;23;20032;-77
2024/01/26 00:54:18;;;;;;;16.55;13.40;;;;;;;8.98;84.81;101506.41;3143115;23;20058;-77
2024/01/26 00:55:31;;;;;;;18.30;13.32;;;;;;;8.98;84.96;101503.78;3143338;23;20460;-79
2024/01/26 00:56:46;;;;;;;21.90;12.77;;;;;;;8.95;84.84;101504.63;3142927;22;20111;-78
2024/01/26 00:57:59;;;;;;;19.23;12.98;;;;;;;8.95;84.84;101509.84;3143024;22;20024;-77
2024/01/26 00:59:14;;;;;;;19.85;13.63;;;;;;;8.94;84.94;101502.91;3147950;23;20023;-77
2024/01/26 01:00:27;;;;;;;17.38;12.68;;;;;;;8.91;84.80;101503.75;3142574;22;20455;-77
2024/01/26 01:01:41;;;;;;;17.55;12.93;;;;;;;8.92;84.91;101504.59;3143636;23;20158;-76
2024/01/26 01:02:55;;;;;;;17.20;13.55;;;;;;;8.92;85.07;101504.59;3143368;22;20103;-76
2024/01/26 01:04:11;;;;;;;18.38;13.68;;;;;;;8.91;84.93;101495.06;3143094;22;20016;-76
2024/01/26 01:05:24;;;;;;;18.80;12.45;;;;;;;8.91;84.88;101497.66;3149282;23;20012;-81
2024/01/26 01:06:39;;;;;;;25.95;14.82;;;;;;;8.90;85.01;101501.97;3156528;22;20151;-80
2024/01/26 01:07:52;;;;;;;18.48;13.13;;;;;;;8.91;84.83;101503.75;3149202;22;20027;-77
2024/01/26 01:09:07;;;;;;;18.02;11.43;;;;;;;8.91;85.13;101497.66;3144381;23;20020;-77
2024/01/26 01:10:21;;;;;;;25.15;15.10;;;;;;;8.90;84.98;101496.75;3142813;23;20059;-77
2024/01/26 01:11:35;;;;;;;17.38;11.75;;;;;;;8.91;85.03;101500.28;3142383;23;20027;-77
2024/01/26 01:12:49;;;;;;;13.65;12.05;;;;;;;8.92;85.11;101502.00;3141929;22;20031;-77
2024/01/26 01:14:04;;;;;;;16.88;11.60;;;;;;;8.91;85.00;101495.06;3143080;23;20020;-78
2024/01/26 01:15:17;;;;;;;20.88;12.80;;;;;;;8.91;85.10;101482.03;3143169;23;20478;-78
2024/01/26 01:16:32;;;;;;;15.05;12.13;;;;;;;8.91;85.20;101495.06;3142217;22;20107;-77
2024/01/26 01:17:46;;;;;;;18.73;12.15;;;;;;;8.92;84.89;101486.38;3142869;22;20024;-77
2024/01/26 01:19:00;;;;;;;13.48;11.18;;;;;;;8.91;84.91;101485.50;3147585;23;20023;-78
2024/01/26 01:20:15;;;;;;;10.95;9.15;;;;;;;8.92;84.91;101491.59;3142236;22;20016;-77
2024/01/26 01:21:30;;;;;;;11.18;10.07;;;;;;;8.91;85.02;101482.03;3142741;22;20024;-77
2024/01/26 01:22:43;;;;;;;12.07;10.00;;;;;;;8.92;85.11;101488.97;3141512;22;20399;-77
2024/01/26 01:23:58;;;;;;;13.40;9.88;;;;;;;8.91;85.07;101482.03;3142299;22;20035;-77
2024/01/26 01:25:12;;;;;;;12.45;9.57;;;;;;;8.91;84.94;101479.44;3145082;22;20024;-75
2024/01/26 01:26:27;;;;;;;13.48;9.40;;;;;;;8.91;84.92;101477.69;3145705;22;20024;-77
2024/01/26 01:27:41;;;;;;;14.15;9.90;;;;;;;8.90;85.12;101473.34;3141447;22;20020;-78
2024/01/26 01:28:55;;;;;;;10.77;8.82;;;;;;;8.91;85.07;101482.03;3141234;23;20027;-78
2024/01/26 01:30:09;;;;;;;9.40;7.97;;;;;;;8.90;84.99;101475.06;3142579;22;20031;-76
2024/01/26 01:31:23;;;;;;;12.32;9.02;;;;;;;8.91;85.03;101482.03;3142077;22;20495;-77
2024/01/26 01:32:37;;;;;;;10.02;6.93;;;;;;;8.90;84.83;101473.34;3141631;22;20020;-77
2024/01/26 01:33:51;;;;;;;9.88;7.75;;;;;;;8.89;85.04;101476.81;3141272;22;20388;-78
2024/01/26 01:35:05;;;;;;;8.95;7.57;;;;;;;8.90;84.99;101480.28;3142380;22;20024;-78
2024/01/26 01:36:21;;;;;;;12.32;7.20;;;;;;;8.88;84.81;101475.06;3141708;22;20020;-78
2024/01/26 01:37:34;;;;;;;10.45;8.00;;;;;;;8.88;84.88;101474.16;3142480;22;20020;-79
2024/01/26 01:38:48;;;;;;;13.52;7.93;;;;;;;8.86;84.83;101476.78;3142709;22;20024;-77
2024/01/26 01:40:02;;;;;;;8.57;7.05;;;;;;;8.86;84.84;101468.97;3142300;22;20653;-77
2024/01/26 01:41:17;;;;;;;8.70;7.53;;;;;;;8.86;84.85;101474.19;3142675;22;20114;-77
2024/01/26 01:42:30;;;;;;;8.05;7.03;;;;;;;8.85;84.93;101461.13;3142373;22;20355;-78
2024/01/26 01:43:53;;;;;;;8.82;7.05;;;;;;;8.84;84.88;101452.44;3141866;22;20040;-78
2024/01/26 01:45:11;;;;;;;6.95;5.97;;;;;;;8.83;84.83;101453.31;3142733;22;20096;-77
2024/01/26 01:46:25;;;;;;;11.10;6.97;;;;;;;8.83;84.74;101449.81;3142350;22;20028;-77
2024/01/26 01:47:39;;;;;;;10.32;6.25;;;;;;;8.83;84.76;101452.41;3141759;22;20020;-78
2024/01/26 01:48:53;;;;;;;5.78;5.22;;;;;;;8.84;84.88;101449.84;3141994;22;20024;-77
2024/01/26 01:50:08;;;;;;;8.50;5.68;;;;;;;8.83;84.67;101452.41;3142512;22;20020;-78
2024/01/26 01:51:24;;;;;;;7.70;6.10;;;;;;;8.83;84.81;101452.41;3142726;22;20098;-77
2024/01/26 01:52:40;;;;;;;7.22;5.38;;;;;;;8.83;84.84;101457.63;3141834;22;20074;-77
2024/01/26 01:53:57;;;;;;;6.38;5.60;;;;;;;8.82;84.54;101458.50;3142581;22;20020;-76
2024/01/26 01:55:14;;;;;;;6.53;5.93;;;;;;;8.82;84.66;101454.16;3142432;22;20031;-77
2024/01/26 01:56:29;;;;;;;6.33;4.50;;;;;;;8.82;84.79;101455.91;3141690;22;20095;-77
2024/01/26 01:57:44;;;;;;;8.23;4.82;;;;;;;8.81;84.63;101459.38;3147235;22;20020;-77
2024/01/26 01:58:59;;;;;;;5.30;4.63;;;;;;;8.82;84.82;101463.69;3142647;22;20030;-77
2024/01/26 02:00:15;;;;;;;5.68;4.57;;;;;;;8.82;84.55;101453.28;3142244;22;20360;-77
2024/01/26 02:01:30;;;;;;;4.70;4.20;;;;;;;8.81;84.65;101462.84;3142576;22;20482;-77
2024/01/26 02:02:45;;;;;;;5.65;4.10;;;;;;;8.81;84.47;101459.38;3142457;22;20024;-79
2024/01/26 02:04:02;;;;;;;7.45;5.05;;;;;;;8.82;84.75;101459.38;3141732;22;20066;-78
2024/01/26 02:05:16;;;;;;;3.40;3.10;;;;;;;8.83;84.56;101460.22;3141961;23;20023;-77
2024/01/26 02:06:32;;;;;;;4.10;3.70;;;;;;;8.84;84.55;101462.88;3142326;22;20024;-75
2024/01/26 02:07:49;;;;;;;5.05;3.25;;;;;;;8.86;84.61;101470.72;3141536;22;20025;-77
2024/01/26 02:09:04;;;;;;;6.00;3.33;;;;;;;8.87;84.46;101457.69;3142275;22;20091;-77
2024/01/26 02:10:17;;;;;;;3.10;2.88;;;;;;;8.89;84.63;101465.53;3142366;22;20033;-77
2024/01/26 02:11:32;;;;;;;3.65;3.20;;;;;;;8.90;84.60;101460.31;3142477;22;20042;-78
2024/01/26 02:12:46;;;;;;;4.13;2.92;;;;;;;8.89;84.24;101461.19;3141685;22;20020;-78
2024/01/26 02:14:00;;;;;;;3.25;2.92;;;;;;;8.91;84.16;101456.88;3142429;22;20020;-78
2024/01/26 02:15:14;;;;;;;3.85;3.55;;;;;;;8.92;84.27;101458.59;3143406;22;20024;-78
2024/01/26 02:16:28;;;;;;;4.70;2.53;;;;;;;8.92;84.07;101458.59;3143134;22;20019;-78
2024/01/26 02:17:42;;;;;;;2.83;2.28;;;;;;;8.93;84.13;101462.09;3143140;22;20024;-78
2024/01/26 02:18:56;;;;;;;3.88;2.88;;;;;;;8.94;83.95;101459.50;3144705;22;20017;-78
2024/01/26 02:20:10;;;;;;;2.40;2.15;;;;;;;8.94;83.93;101456.03;3143653;22;20023;-77
2024/01/26 02:21:24;;;;;;;4.45;2.55;;;;;;;8.95;83.91;101461.25;3142030;22;20023;-77
2024/01/26 02:22:39;;;;;;;3.75;1.98;;;;;;;8.96;83.73;101459.53;3142174;22;20024;-73
2024/01/26 02:23:55;;;;;;;3.53;2.33;;;;;;;8.98;83.76;101451.72;3142089;22;20035;-77
2024/01/26 02:25:08;;;;;;;3.08;2.03;;;;;;;8.99;83.59;101451.75;3142453;22;20024;-77
2024/01/26 02:26:23;;;;;;;2.92;1.70;;;;;;;9.01;83.44;101460.47;3142426;22;20040;-77
2024/01/26 02:27:36;;;;;;;3.25;2.50;;;;;;;9.02;83.36;101463.94;3142225;22;20107;-77
2024/01/26 02:28:51;;;;;;;1.98;1.77;;;;;;;9.02;83.31;101453.53;3141984;22;20051;-76
2024/01/26 02:30:05;;;;;;;2.40;2.15;;;;;;;9.02;83.23;101446.56;3142668;22;20024;-77
2024/01/26 02:31:20;;;;;;;2.30;1.90;;;;;;;9.02;83.09;101441.38;3142814;22;20082;-76
2024/01/26 02:33:49;;;;;;;4.07;1.60;;;;;;;9.04;83.03;101439.66;3156265;22;20012;-77
2024/01/26 02:35:03;;;;;;;2.25;2.05;;;;;;;9.04;82.90;101444.88;3163750;22;20029;-79
2024/01/26 02:36:17;;;;;;;2.35;1.50;;;;;;;9.07;82.94;101446.63;3158063;22;20015;-77
2024/01/26 02:37:31;;;;;;;1.55;1.45;;;;;;;9.08;82.57;101443.16;3158925;22;20019;-76
2024/01/26 02:38:45;;;;;;;4.85;2.10;;;;;;;9.10;82.48;101442.31;3157954;22;20073;-77
2024/01/26 02:40:00;;;;;;;5.65;1.85;;;;;;;9.10;82.39;101439.72;3157603;22;20338;-77
2024/01/26 02:41:14;;;;;;;6.22;1.63;;;;;;;9.10;82.31;101441.44;3157948;22;20023;-77
2024/01/26 02:42:28;;;;;;;3.80;1.80;;;;;;;9.11;82.27;101440.56;3158144;22;20031;-77
2024/01/26 02:43:42;;;;;;;2.28;1.50;;;;;;;9.12;82.11;101447.56;3143582;22;20030;-77
2024/01/26 02:44:55;;;;;;;4.20;1.50;;;;;;;9.12;81.61;101450.16;3142740;22;20024;-77
2024/01/26 02:46:10;;;;;;;3.75;1.58;;;;;;;9.13;81.85;101452.75;3143369;23;20020;-77
2024/01/26 02:47:24;;;;;;;1.92;1.83;;;;;;;9.14;81.96;101457.13;3144196;23;20046;-77
2024/01/26 02:48:39;;;;;;;3.63;2.20;;;;;;;9.16;81.84;101455.41;3144234;22;20035;-76
2024/01/26 02:49:52;;;;;;;1.88;1.70;;;;;;;9.18;81.63;101458.88;3143225;22;20024;-77
2024/01/26 02:51:07;;;;;;;1.70;1.60;;;;;;;9.18;81.63;101453.69;3142820;22;20028;-77
2024/01/26 02:52:20;;;;;;;6.30;3.42;;;;;;;9.21;81.50;101460.66;3141911;22;20099;-77
2024/01/26 02:53:39;;;;;;;5.82;2.33;;;;;;;9.22;81.40;101456.34;3142847;22;20360;-77
2024/01/26 02:54:52;;;;;;;3.30;1.70;;;;;;;9.23;81.49;101460.69;3143944;22;20020;-76
2024/01/26 02:56:08;;;;;;;2.00;1.70;;;;;;;9.23;81.44;101455.47;3143359;22;20073;-78
2024/01/26 02:57:22;;;;;;;3.08;1.42;;;;;;;9.24;81.34;101457.19;3142560;22;20021;-77
2024/01/26 02:58:37;;;;;;;3.97;1.88;;;;;;;9.24;81.07;101458.09;3142819;22;20016;-77
2024/01/26 02:59:50;;;;;;;3.40;1.50;;;;;;;9.25;81.18;101456.38;3141880;22;20028;-77
2024/01/26 03:01:05;;;;;;;1.67;1.58;;;;;;;9.26;80.97;101453.75;3142690;22;20030;-75
2024/01/26 03:02:18;;;;;;;3.75;2.10;;;;;;;9.26;80.99;101460.69;3142705;22;20178;-78
2024/01/26 03:03:33;;;;;;;5.65;1.60;;;;;;;9.27;80.97;101465.06;3142470;22;20019;-77
2024/01/26 03:04:46;;;;;;;3.95;1.98;;;;;;;9.26;81.00;101464.16;3143562;22;20031;-77
2024/01/26 03:06:00;;;;;;;4.40;1.55;;;;;;;9.27;80.70;101465.06;3145144;23;20020;-77
2024/01/26 03:07:14;;;;;;;2.33;1.27;;;;;;;9.29;80.84;101465.94;3144842;22;20023;-78
2024/01/26 03:08:28;;;;;;;2.22;1.40;;;;;;;9.30;80.75;101465.09;3144270;22;20330;-77
2024/01/26 03:09:42;;;;;;;2.88;1.70;;;;;;;9.31;80.59;101456.41;3144075;22;20471;-77
2024/01/26 03:10:56;;;;;;;2.17;1.50;;;;;;;9.32;80.47;101455.53;3143914;22;20035;-76
2024/01/26 03:12:11;;;;;;;2.95;2.08;;;;;;;9.31;80.50;101452.06;3141522;22;20021;-78
2024/01/26 03:13:25;;;;;;;3.67;1.73;;;;;;;9.33;80.25;101449.50;3142862;22;20332;-79
2024/01/26 03:14:39;;;;;;;4.00;2.40;;;;;;;9.33;80.26;101450.34;3144420;23;20031;-79
2024/01/26 03:15:53;;;;;;;1.38;1.27;;;;;;;9.35;80.03;101451.25;3142236;22;20364;-77
2024/01/26 03:17:07;;;;;;;2.67;1.02;;;;;;;9.34;80.14;101461.63;3142608;23;20043;-77
2024/01/26 03:18:21;;;;;;;2.35;1.52;;;;;;;9.34;79.90;101462.50;3144709;22;20024;-79
2024/01/26 03:19:36;;;;;;;2.35;1.35;;;;;;;9.35;80.06;101469.47;3145242;22;20016;-77
2024/01/26 03:20:50;;;;;;;1.25;1.15;;;;;;;9.36;79.96;101465.13;3144872;22;20024;-80
2024/01/26 03:22:04;;;;;;;2.95;1.02;;;;;;;9.36;79.90;101458.19;3150684;22;20139;-80
2024/01/26 03:23:18;;;;;;;2.10;1.67;;;;;;;9.37;79.90;101461.66;3151138;22;20467;-80
2024/01/26 03:24:31;;;;;;;3.47;2.22;;;;;;;9.38;79.69;101463.44;3145805;22;20300;-80
2024/01/26 03:25:46;;;;;;;1.20;1.10;;;;;;;9.38;79.77;101461.69;3144565;22;20026;-80
2024/01/26 03:27:00;;;;;;;1.40;1.30;;;;;;;9.39;79.57;101462.56;3146152;22;20027;-80
2024/01/26 03:28:16;;;;;;;1.75;1.20;;;;;;;9.39;79.46;101465.16;3143803;22;20016;-80
2024/01/26 03:29:29;;;;;;;2.63;1.95;;;;;;;9.41;79.45;101470.41;3145395;22;20447;-80
2024/01/26 03:30:44;;;;;;;2.33;1.70;;;;;;;9.39;79.31;101466.03;3146158;22;20059;-80
2024/01/26 03:31:57;;;;;;;2.22;1.05;;;;;;;9.41;79.45;101460.84;3146060;22;20031;-80
2024/01/26 03:33:12;;;;;;;4.35;1.92;;;;;;;9.42;79.36;101448.69;3145235;22;20030;-80
2024/01/26 03:34:25;;;;;;;2.28;1.67;;;;;;;9.42;79.23;101459.97;3145889;23;20024;-81
2024/01/26 03:35:39;;;;;;;3.63;1.88;;;;;;;9.42;79.29;101461.72;3144037;22;20020;-79
2024/01/26 03:36:53;;;;;;;2.35;1.77;;;;;;;9.42;79.28;101457.38;3145663;22;20495;-80
2024/01/26 03:38:07;;;;;;;1.75;1.27;;;;;;;9.42;79.13;101467.78;3145440;23;20026;-81
2024/01/26 03:39:21;;;;;;;3.30;1.63;;;;;;;9.43;79.09;101461.75;3145118;22;20031;-80
2024/01/26 03:40:35;;;;;;;3.08;1.60;;;;;;;9.41;79.20;101460.84;3144951;22;20027;-80
2024/01/26 03:41:49;;;;;;;5.30;1.95;;;;;;;9.42;79.09;101464.31;3145866;22;20094;-80
2024/01/26 03:43:03;;;;;;;2.45;1.17;;;;;;;9.43;79.08;101471.28;3145538;22;20103;-79
2024/01/26 03:44:18;;;;;;;2.97;1.45;;;;;;;9.42;78.87;101465.19;3145418;22;20023;-79
2024/01/26 03:45:33;;;;;;;1.88;1.23;;;;;;;9.41;78.87;101468.66;3145647;23;20027;-79
2024/01/26 03:46:46;;;;;;;1.50;1.08;;;;;;;9.41;78.91;101462.59;3146892;22;20035;-79
2024/01/26 03:48:00;;;;;;;1.38;1.20;;;;;;;9.39;78.90;101465.16;3146031;22;20020;-79
2024/01/26 03:49:14;;;;;;;1.67;1.58;;;;;;;9.39;78.83;101462.56;3146956;22;20024;-80
2024/01/26 03:50:28;;;;;;;3.45;1.27;;;;;;;9.38;78.85;101459.09;3147246;22;20030;-78
2024/01/26 03:51:42;;;;;;;1.27;0.98;;;;;;;9.39;78.83;101462.56;3146394;22;20464;-80
2024/01/26 03:52:56;;;;;;;1.50;1.10;;;;;;;9.38;78.80;101466.03;3147004;22;20030;-79
2024/01/26 03:54:09;;;;;;;1.20;1.10;;;;;;;9.37;78.85;101461.66;3146925;23;20031;-80
2024/01/26 03:55:24;;;;;;;2.65;1.63;;;;;;;9.37;78.71;101472.97;3150377;22;20071;-79
2024/01/26 03:56:37;;;;;;;1.20;1.10;;;;;;;9.35;78.79;101466.88;3151460;22;20363;-79
2024/01/26 03:57:52;;;;;;;1.48;1.38;;;;;;;9.36;78.67;101460.78;3152444;22;20095;-79
2024/01/26 03:59:05;;;;;;;1.38;1.17;;;;;;;9.35;78.77;101453.00;3153856;22;20391;-78
2024/01/26 04:00:21;;;;;;;1.60;1.25;;;;;;;9.35;78.77;101461.66;3150813;22;20072;-80
2024/01/26 04:01:35;;;;;;;3.53;2.10;;;;;;;9.34;78.77;101470.31;3152832;22;20035;-79
2024/01/26 04:02:49;;;;;;;1.17;0.93;;;;;;;9.34;78.92;101464.25;3150266;22;20028;-79
2024/01/26 04:04:03;;;;;;;0.98;0.85;;;;;;;9.32;78.81;101469.47;3146885;22;20027;-80
2024/01/26 04:05:17;;;;;;;1.67;1.00;;;;;;;9.32;79.11;101468.56;3147192;22;20024;-79
2024/01/26 04:06:31;;;;;;;1.17;1.08;;;;;;;9.30;78.96;101462.50;3147608;22;20020;-79
2024/01/26 04:07:45;;;;;;;1.85;1.10;;;;;;;9.27;79.17;101463.34;3145689;22;20027;-78
2024/01/26 04:08:59;;;;;;;1.85;1.75;;;;;;;9.26;79.29;101458.09;3147361;22;20028;-79
2024/01/26 04:10:13;;;;;;;2.95;1.73;;;;;;;9.24;79.27;101457.19;3146573;22;20076;-79
2024/01/26 04:11:26;;;;;;;4.90;2.47;;;;;;;9.21;79.39;101468.47;3146335;22;20031;-79
2024/01/26 04:12:41;;;;;;;2.10;1.30;;;;;;;9.18;79.44;101471.03;3145567;22;20013;-79
2024/01/26 04:13:54;;;;;;;1.80;1.52;;;;;;;9.15;79.58;101458.84;3146062;22;20024;-76
2024/01/26 04:15:09;;;;;;;3.42;1.65;;;;;;;9.13;79.68;101463.16;3145854;22;20026;-79
2024/01/26 04:16:24;;;;;;;1.70;1.50;;;;;;;9.09;79.90;101458.81;3145458;22;20402;-78
2024/01/26 04:17:38;;;;;;;1.27;1.17;;;;;;;9.07;79.90;101450.09;3145716;22;20016;-78
2024/01/26 04:18:52;;;;;;;1.30;1.20;;;;;;;9.06;80.12;101456.19;3145854;22;20024;-78
2024/01/26 04:20:07;;;;;;;1.80;1.48;;;;;;;9.03;80.25;101453.50;3145143;22;20020;-78
2024/01/26 04:21:21;;;;;;;1.60;1.25;;;;;;;9.03;80.38;101453.50;3146475;22;20027;-78
2024/01/26 04:22:36;;;;;;;2.70;1.20;;;;;;;9.00;80.46;101448.28;3144827;22;20020;-78
2024/01/26 04:23:49;;;;;;;1.50;1.13;;;;;;;8.97;80.59;101450.00;3145131;22;20028;-78
2024/01/26 04:25:04;;;;;;;3.67;1.30;;;;;;;8.95;81.05;101457.78;3146113;22;20515;-77
2024/01/26 04:26:18;;;;;;;1.52;1.23;;;;;;;8.93;80.88;101462.09;3146246;22;20020;-78
2024/01/26 04:27:32;;;;;;;3.22;1.30;;;;;;;8.92;81.03;101452.53;3146430;22;20016;-78
2024/01/26 04:28:46;;;;;;;1.92;1.75;;;;;;;8.91;81.36;101461.22;3145596;22;20026;-78
2024/01/26 04:30:01;;;;;;;4.32;1.85;;;;;;;8.90;81.51;101470.72;3146510;22;20031;-77
2024/01/26 04:31:14;;;;;;;1.67;1.48;;;;;;;8.89;81.38;101465.53;3145417;22;20046;-78
2024/01/26 04:32:30;;;;;;;2.85;2.15;;;;;;;8.86;81.64;101473.31;3146332;22;20099;-78
2024/01/26 04:33:44;;;;;;;6.50;1.92;;;;;;;8.85;81.81;101468.94;3146133;22;20020;-79
2024/01/26 04:34:58;;;;;;;2.05;1.55;;;;;;;8.84;81.83;101470.66;3146356;22;20101;-78
2024/01/26 04:36:12;;;;;;;3.42;1.83;;;;;;;8.82;81.99;101469.78;3145691;22;20020;-78
2024/01/26 04:37:26;;;;;;;2.15;1.70;;;;;;;8.82;82.16;101471.50;3146406;22;20020;-78
2024/01/26 04:38:40;;;;;;;3.53;1.27;;;;;;;8.82;82.30;101474.97;3145801;22;20023;-78
2024/01/26 04:39:55;;;;;;;3.15;1.48;;;;;;;8.81;82.38;101467.19;3145902;22;20076;-78
2024/01/26 04:41:08;;;;;;;1.35;1.20;;;;;;;8.80;82.55;101470.63;3146283;22;20030;-78
2024/01/26 04:42:22;;;;;;;2.58;1.33;;;;;;;8.79;82.46;101469.75;3146571;22;20020;-78
2024/01/26 04:43:36;;;;;;;1.42;1.27;;;;;;;8.78;82.75;101465.41;3146610;22;20459;-78
2024/01/26 04:44:50;;;;;;;1.20;1.00;;;;;;;8.79;82.84;101474.09;3147558;22;20034;-76
2024/01/26 04:46:04;;;;;;;5.90;1.92;;;;;;;8.77;82.74;101468.84;3151438;22;20024;-78
2024/01/26 04:47:18;;;;;;;3.08;1.27;;;;;;;8.78;82.96;101472.31;3152006;22;20049;-78
2024/01/26 04:48:33;;;;;;;5.22;2.58;;;;;;;8.77;83.02;101466.25;3149941;22;20020;-77
2024/01/26 04:49:47;;;;;;;1.80;1.70;;;;;;;8.77;82.98;101467.97;3150065;22;20024;-79
2024/01/26 04:51:01;;;;;;;2.03;1.83;;;;;;;8.74;82.99;101461.88;3146444;22;20478;-79
2024/01/26 04:52:15;;;;;;;3.47;2.00;;;;;;;8.73;83.28;101462.75;3145043;22;20019;-77
2024/01/26 04:53:29;;;;;;;2.25;1.70;;;;;;;8.74;83.37;101461.00;3146777;22;20094;-78
2024/01/26 04:54:43;;;;;;;6.93;2.08;;;;;;;8.74;83.18;101467.09;3145690;22;20020;-79
2024/01/26 04:55:57;;;;;;;2.78;2.03;;;;;;;8.73;83.63;101465.34;3144289;22;20020;-79
2024/01/26 04:57:11;;;;;;;1.60;1.48;;;;;;;8.73;83.59;101454.94;3145531;22;20099;-78
2024/01/26 04:58:25;;;;;;;3.35;1.25;;;;;;;8.73;83.70;101457.53;3145767;22;20016;-79
2024/01/26 04:59:39;;;;;;;4.30;2.03;;;;;;;8.76;83.77;101458.44;3144771;22;20016;-78
2024/01/26 05:00:53;;;;;;;1.73;1.63;;;;;;;8.76;83.68;101461.03;3145917;22;20024;-78
2024/01/26 05:02:07;;;;;;;2.75;1.75;;;;;;;8.76;83.73;101456.69;3144824;23;20059;-79
2024/01/26 05:03:21;;;;;;;2.85;1.98;;;;;;;8.77;83.78;101457.56;3145306;22;20024;-79
2024/01/26 05:04:36;;;;;;;4.97;2.25;;;;;;;8.77;83.56;101452.38;3144637;22;20346;-77
2024/01/26 05:05:50;;;;;;;2.67;2.05;;;;;;;8.77;83.77;101444.56;3145187;22;20028;-79
2024/01/26 05:07:05;;;;;;;2.10;1.83;;;;;;;8.78;83.76;101443.69;3145052;22;20096;-78
2024/01/26 05:08:18;;;;;;;2.78;1.67;;;;;;;8.77;83.90;101437.63;3144112;22;20355;-79
2024/01/26 05:09:33;;;;;;;2.25;1.83;;;;;;;8.79;84.03;101440.25;3145078;22;20020;-79
2024/01/26 05:10:46;;;;;;;1.95;1.70;;;;;;;8.79;83.95;101440.25;3145029;22;20024;-78
2024/01/26 05:12:01;;;;;;;1.98;1.48;;;;;;;8.78;83.99;101434.19;3144769;22;20329;-79
2024/01/26 05:13:14;;;;;;;2.90;1.80;;;;;;;8.79;84.14;101435.03;3144990;22;20031;-78
2024/01/26 05:14:28;;;;;;;3.20;2.00;;;;;;;8.79;84.00;101432.44;3145873;22;20020;-78
2024/01/26 05:15:42;;;;;;;3.47;1.63;;;;;;;8.80;84.07;101431.56;3144825;22;20035;-78
2024/01/26 05:16:56;;;;;;;2.00;1.80;;;;;;;8.81;84.02;101423.78;3146207;22;20365;-77
2024/01/26 05:18:10;;;;;;;3.35;2.00;;;;;;;8.81;84.06;101428.13;3146037;22;20020;-78
2024/01/26 05:19:24;;;;;;;3.33;1.95;;;;;;;8.83;83.99;101429.00;3146935;22;20020;-78
2024/01/26 05:20:39;;;;;;;2.45;1.67;;;;;;;8.84;84.24;101428.16;3145855;22;20027;-78
2024/01/26 05:21:53;;;;;;;1.92;1.70;;;;;;;8.85;84.12;101425.56;3146628;22;20103;-78
2024/01/26 05:23:07;;;;;;;3.80;2.03;;;;;;;8.85;84.12;101424.69;3146680;22;20447;-81
2024/01/26 05:24:22;;;;;;;1.98;1.80;;;;;;;8.85;84.20;101427.28;3146194;22;20043;-77
2024/01/26 05:25:35;;;;;;;1.60;1.50;;;;;;;8.84;84.08;101428.16;3146103;22;20020;-79
2024/01/26 05:26:50;;;;;;;2.97;2.15;;;;;;;8.86;84.18;101424.72;3146568;23;20048;-78
2024/01/26 05:28:04;;;;;;;5.70;2.00;;;;;;;8.86;84.36;101426.44;3145338;22;20027;-77
2024/01/26 05:29:18;;;;;;;3.38;1.95;;;;;;;8.85;84.32;101422.94;3146503;22;20410;-78
2024/01/26 05:30:32;;;;;;;4.22;1.95;;;;;;;8.86;84.31;101422.13;3145826;22;20085;-79
2024/01/26 05:31:46;;;;;;;1.95;1.85;;;;;;;8.87;84.30;101422.97;3145356;22;20431;-78
2024/01/26 05:33:01;;;;;;;2.75;2.03;;;;;;;8.86;84.27;101427.31;3145728;22;20080;-78
2024/01/26 05:34:15;;;;;;;2.30;2.05;;;;;;;8.87;84.15;101428.19;3145346;22;20043;-77
2024/01/26 05:35:29;;;;;;;3.83;1.88;;;;;;;8.87;84.21;101433.41;3145238;22;20024;-79
2024/01/26 05:36:44;;;;;;;5.40;2.15;;;;;;;8.86;84.30;101436.88;3144199;22;20020;-77
2024/01/26 05:37:58;;;;;;;2.47;2.28;;;;;;;8.86;84.29;101436.88;3145310;22;20023;-77
2024/01/26 05:39:12;;;;;;;5.05;2.08;;;;;;;8.87;84.30;101433.41;3145033;22;20020;-78
2024/01/26 05:40:26;;;;;;;8.38;2.53;;;;;;;8.88;84.23;101432.53;3144875;22;20399;-78
2024/01/26 05:41:40;;;;;;;4.88;2.13;;;;;;;8.88;84.14;101422.09;3145149;22;20024;-77
2024/01/26 05:42:54;;;;;;;4.20;2.50;;;;;;;8.88;84.19;101423.00;3145085;22;20024;-77
2024/01/26 05:44:08;;;;;;;2.85;2.40;;;;;;;8.90;84.11;101430.81;3144840;22;20026;-78
2024/01/26 05:45:22;;;;;;;2.00;1.85;;;;;;;8.91;84.46;101427.38;3145587;22;20032;-78
2024/01/26 05:46:36;;;;;;;1.83;1.73;;;;;;;8.91;84.44;101429.97;3145399;23;20220;-78
2024/01/26 05:47:50;;;;;;;2.85;2.13;;;;;;;8.92;84.23;101429.09;3144106;22;20024;-78
2024/01/26 05:49:04;;;;;;;1.75;1.65;;;;;;;8.93;84.13;101436.06;3144010;22;20024;-79